createdAt,value
2022-12-17T00:01:04.448Z,32.80
2022-12-17T00:03:49.970Z,28.20
2022-12-17T00:06:36.247Z,30.90
2022-12-17T00:09:21.632Z,30.10
2022-12-17T00:12:07.100Z,25.90
2022-12-17T00:14:52.568Z,28.00
2022-12-17T00:17:39.306Z,26.40
2022-12-17T00:20:24.850Z,28.80
2022-12-17T00:23:20.527Z,22.20
2022-12-17T00:26:20.802Z,25.40
2022-12-17T00:29:10.703Z,23.40
2022-12-17T00:31:56.364Z,21.30
2022-12-17T00:34:42.009Z,22.70
2022-12-17T00:37:28.842Z,23.50
2022-12-17T00:40:14.397Z,18.90
2022-12-17T00:43:00.354Z,17.50
2022-12-17T00:45:46.232Z,20.20
2022-12-17T00:48:31.722Z,21.00
2022-12-17T00:51:17.178Z,19.60
2022-12-17T00:54:04.068Z,22.50
2022-12-17T00:56:52.061Z,14.80
2022-12-17T00:59:37.571Z,15.40
2022-12-17T01:02:23.190Z,16.20
2022-12-17T01:05:08.924Z,17.30
2022-12-17T01:07:54.870Z,18.00
2022-12-17T01:10:42.079Z,16.10
2022-12-17T01:13:27.622Z,17.80
2022-12-17T01:16:13.079Z,17.20
2022-12-17T01:18:58.584Z,18.10
2022-12-17T01:21:51.560Z,18.80
2022-12-17T01:24:37.427Z,21.80
2022-12-17T01:27:24.170Z,21.90
2022-12-17T01:30:09.830Z,21.70
2022-12-17T01:32:55.219Z,21.80
2022-12-17T01:35:40.790Z,22.50
2022-12-17T01:38:32.912Z,25.50
2022-12-17T01:41:18.257Z,20.90
2022-12-17T01:44:03.863Z,21.50
2022-12-17T01:46:52.407Z,18.60
2022-12-17T01:49:39.697Z,14.30
2022-12-17T01:52:25.184Z,13.20
2022-12-17T01:55:10.842Z,13.90
2022-12-17T01:57:58.064Z,16.90
2022-12-17T02:00:43.590Z,13.20
2022-12-17T02:03:36.557Z,14.00
2022-12-17T02:06:37.599Z,16.10
2022-12-17T02:09:27.096Z,15.10
2022-12-17T02:12:21.863Z,15.50
2022-12-17T02:15:11.779Z,13.70
2022-12-17T02:18:00.347Z,14.80
2022-12-17T02:20:49.846Z,19.30
2022-12-17T02:23:47.518Z,13.60
2022-12-17T02:26:49.712Z,15.10
2022-12-17T02:29:38.814Z,14.10
2022-12-17T02:32:24.358Z,13.30
2022-12-17T02:35:09.750Z,13.10
2022-12-17T02:37:55.297Z,16.20
2022-12-17T02:40:41.302Z,12.80
2022-12-17T02:43:27.284Z,11.10
2022-12-17T02:46:13.635Z,12.80
2022-12-17T02:48:59.532Z,8.40
2022-12-17T02:51:46.584Z,9.90
2022-12-17T02:54:32.120Z,9.40
2022-12-17T02:57:17.553Z,9.30
2022-12-17T03:00:03.461Z,9.90
2022-12-17T03:02:49.737Z,9.80
2022-12-17T03:05:45.057Z,9.50
2022-12-17T03:08:31.761Z,9.60
2022-12-17T03:11:17.347Z,8.40
2022-12-17T03:14:02.873Z,8.90
2022-12-17T03:16:48.588Z,8.10
2022-12-17T03:19:34.267Z,8.00
2022-12-17T03:22:19.587Z,7.00
2022-12-17T03:25:04.934Z,7.50
2022-12-17T03:27:50.432Z,7.30
2022-12-17T03:30:39.173Z,6.80
2022-12-17T03:33:27.920Z,5.50
2022-12-17T03:36:13.496Z,6.20
2022-12-17T03:38:58.816Z,6.60
2022-12-17T03:41:44.275Z,7.50
2022-12-17T03:44:29.752Z,6.90
2022-12-17T03:47:15.339Z,7.60
2022-12-17T03:50:00.821Z,5.60
2022-12-17T03:52:46.366Z,6.10
2022-12-17T03:55:31.736Z,6.30
2022-12-17T03:58:17.253Z,6.70
2022-12-17T04:01:02.900Z,18.20
2022-12-17T04:03:48.589Z,12.90
2022-12-17T04:06:34.093Z,7.00
2022-12-17T04:09:19.498Z,4.90
2022-12-17T04:12:04.993Z,5.50
2022-12-17T04:14:50.444Z,5.70
2022-12-17T04:17:36.212Z,6.80
2022-12-17T04:20:22.155Z,6.80
2022-12-17T04:23:07.729Z,4.80
2022-12-17T04:25:53.168Z,4.80
2022-12-17T04:28:38.607Z,5.30
2022-12-17T04:31:24.347Z,5.50
2022-12-17T04:34:09.799Z,6.90
2022-12-17T04:36:55.362Z,6.30
2022-12-17T04:39:40.733Z,6.30
2022-12-17T04:42:26.132Z,6.00
2022-12-17T04:45:11.679Z,13.30
2022-12-17T04:47:57.023Z,8.60
2022-12-17T04:50:56.254Z,6.40
2022-12-17T04:53:41.700Z,6.20
2022-12-17T04:56:27.125Z,6.00
2022-12-17T04:59:12.556Z,8.30
2022-12-17T05:01:58.304Z,8.30
2022-12-17T05:04:43.991Z,7.30
2022-12-17T05:07:29.417Z,7.20
2022-12-17T05:10:14.903Z,8.90
2022-12-17T05:13:00.310Z,8.30
2022-12-17T05:15:51.290Z,10.80
2022-12-17T05:18:38.419Z,8.50
2022-12-17T05:21:23.884Z,7.40
2022-12-17T05:24:09.238Z,5.40
2022-12-17T05:26:54.877Z,5.70
2022-12-17T05:29:42.728Z,5.80
2022-12-17T05:32:28.259Z,6.10
2022-12-17T05:35:13.677Z,6.50
2022-12-17T05:37:59.164Z,6.40
2022-12-17T05:40:44.641Z,6.00
2022-12-17T05:43:31.300Z,4.60
2022-12-17T05:46:17.736Z,4.50
2022-12-17T05:49:03.248Z,5.00
2022-12-17T05:51:48.738Z,6.30
2022-12-17T05:54:34.254Z,6.70
2022-12-17T05:57:19.852Z,8.60
2022-12-17T06:00:05.339Z,6.60
2022-12-17T06:02:57.715Z,6.40
2022-12-17T06:05:43.398Z,8.10
2022-12-17T06:08:28.788Z,6.60
2022-12-17T06:11:17.658Z,7.20
2022-12-17T06:14:03.122Z,6.60
2022-12-17T06:16:48.525Z,8.90
2022-12-17T06:19:33.848Z,8.00
2022-12-17T06:22:19.434Z,6.90
2022-12-17T06:25:04.817Z,6.60
2022-12-17T06:27:50.335Z,6.90
2022-12-17T06:30:35.824Z,10.00
2022-12-17T06:33:28.998Z,7.30
2022-12-17T06:36:21.605Z,7.80
2022-12-17T06:39:07.895Z,6.40
2022-12-17T06:41:54.771Z,9.60
2022-12-17T06:44:47.766Z,7.30
2022-12-17T06:47:33.302Z,7.80
2022-12-17T06:50:18.823Z,9.00
2022-12-17T06:53:04.391Z,7.30
2022-12-17T06:55:49.787Z,10.40
2022-12-17T06:58:35.491Z,8.80
2022-12-17T07:01:21.320Z,9.10
2022-12-17T07:04:06.941Z,9.80
2022-12-17T07:06:55.529Z,8.40
2022-12-17T07:09:42.677Z,10.70
2022-12-17T07:12:28.042Z,12.10
2022-12-17T07:15:13.804Z,13.90
2022-12-17T07:19:56.005Z,13.70
2022-12-17T07:22:55.411Z,11.70
2022-12-17T07:25:45.830Z,11.00
2022-12-17T07:28:32.819Z,11.40
2022-12-17T07:31:20.092Z,12.00
2022-12-17T07:34:08.998Z,15.20
2022-12-17T07:36:57.255Z,11.70
2022-12-17T07:39:47.384Z,9.70
2022-12-17T07:42:33.115Z,6.80
2022-12-17T07:45:18.903Z,7.10
2022-12-17T07:48:13.232Z,35.10
2022-12-17T07:50:58.844Z,10.20
2022-12-17T07:53:44.580Z,7.60
2022-12-17T07:56:30.484Z,8.40
2022-12-17T07:59:16.276Z,9.30
2022-12-17T08:02:04.992Z,9.80
2022-12-17T08:04:51.122Z,11.40
2022-12-17T08:07:36.888Z,10.40
2022-12-17T08:10:26.364Z,13.00
2022-12-17T08:13:18.884Z,14.00
2022-12-17T08:16:04.587Z,17.40
2022-12-17T08:18:50.457Z,17.90
2022-12-17T08:21:36.086Z,16.00
2022-12-17T08:24:21.807Z,13.40
2022-12-17T08:27:07.507Z,8.20
2022-12-17T08:29:53.398Z,9.80
2022-12-17T08:32:39.183Z,7.40
2022-12-17T08:35:24.986Z,9.20
2022-12-17T08:38:12.202Z,9.80
2022-12-17T08:48:56.059Z,6.90
2022-12-17T08:51:45.172Z,7.10
2022-12-17T08:54:31.013Z,7.00
2022-12-17T08:57:30.624Z,7.10
2022-12-17T09:00:19.379Z,9.50
2022-12-17T09:03:05.055Z,6.90
2022-12-17T09:05:50.578Z,6.70
2022-12-17T09:08:36.112Z,7.60
2022-12-17T09:11:21.447Z,10.10
2022-12-17T09:14:06.987Z,8.60
2022-12-17T09:16:52.503Z,8.60
2022-12-17T09:19:38.037Z,8.60
2022-12-17T09:22:23.653Z,7.40
2022-12-17T09:25:09.308Z,7.10
2022-12-17T09:27:54.872Z,7.80
2022-12-17T09:30:40.341Z,8.20
2022-12-17T09:33:25.784Z,9.20
2022-12-17T09:36:11.293Z,10.20
2022-12-17T09:38:56.726Z,6.30
2022-12-17T09:41:51.383Z,4.90
2022-12-17T09:44:45.418Z,4.90
2022-12-17T09:47:52.452Z,5.10
2022-12-17T09:50:37.893Z,5.80
2022-12-17T09:53:29.443Z,5.40
2022-12-17T09:56:14.948Z,4.30
2022-12-17T09:59:00.536Z,9.10
2022-12-17T10:01:49.696Z,5.50
2022-12-17T10:04:56.137Z,6.50
2022-12-17T10:07:43.526Z,5.10
2022-12-17T10:10:34.206Z,4.40
2022-12-17T10:13:19.644Z,64.40
2022-12-17T10:16:05.903Z,17.90
2022-12-17T10:19:00.836Z,4.80
2022-12-17T10:21:50.768Z,4.90
2022-12-17T10:24:36.359Z,6.00
2022-12-17T10:27:28.969Z,6.30
2022-12-17T10:30:14.524Z,7.00
2022-12-17T10:33:00.116Z,6.20
2022-12-17T10:35:53.710Z,7.60
2022-12-17T10:41:37.898Z,26.80
2022-12-17T10:44:38.313Z,9.70
2022-12-17T10:47:26.387Z,9.80
2022-12-17T10:50:16.567Z,6.90
2022-12-17T10:53:14.127Z,5.60
2022-12-17T10:56:13.121Z,6.40
2022-12-17T10:59:05.919Z,5.20
2022-12-17T11:01:51.513Z,6.40
2022-12-17T11:04:57.432Z,21.10
2022-12-17T11:07:43.806Z,11.30
2022-12-17T11:10:44.253Z,9.00
2022-12-17T11:13:35.110Z,8.20
2022-12-17T11:16:20.803Z,7.30
2022-12-17T11:19:17.549Z,5.90
2022-12-17T11:22:05.906Z,6.50
2022-12-17T11:24:53.911Z,5.30
2022-12-17T11:27:41.088Z,4.10
2022-12-17T11:30:33.671Z,5.20
2022-12-17T11:33:25.254Z,5.40
2022-12-17T11:36:13.742Z,3.20
2022-12-17T11:39:25.677Z,5.10
2022-12-17T11:42:17.400Z,7.00
2022-12-17T11:45:06.508Z,4.30
2022-12-17T11:48:15.358Z,4.60
2022-12-17T11:51:33.479Z,9.00
2022-12-17T11:54:19.985Z,5.00
2022-12-17T11:57:10.473Z,4.90
2022-12-17T12:00:04.560Z,6.50
2022-12-17T12:03:09.305Z,5.20
2022-12-17T12:06:17.898Z,3.70
2022-12-17T12:09:52.561Z,9.40
2022-12-17T12:12:59.025Z,6.50
2022-12-17T12:15:55.763Z,3.80
2022-12-17T12:18:57.287Z,4.70
2022-12-17T12:21:59.070Z,4.60
2022-12-17T12:25:02.595Z,4.40
2022-12-17T12:28:24.124Z,4.00
2022-12-17T12:31:25.974Z,5.00
2022-12-17T12:34:19.511Z,6.80
2022-12-17T12:37:05.050Z,3.90
2022-12-17T12:39:57.026Z,3.90
2022-12-17T12:42:56.272Z,4.30
2022-12-17T12:46:03.685Z,4.00
2022-12-17T12:48:55.514Z,3.60
2022-12-17T12:51:48.204Z,3.90
2022-12-17T12:54:47.563Z,5.20
2022-12-17T12:57:52.491Z,6.80
2022-12-17T13:00:44.267Z,5.40
2022-12-17T13:03:58.293Z,4.60
2022-12-17T13:06:40.110Z,6.00
2022-12-17T13:09:19.051Z,5.70
2022-12-17T13:11:48.255Z,6.50
2022-12-17T13:14:20.850Z,4.90
2022-12-17T13:16:47.765Z,9.00
2022-12-17T13:19:40.270Z,9.70
2022-12-17T13:22:10.107Z,7.60
2022-12-17T13:24:37.029Z,7.70
2022-12-17T13:27:04.294Z,10.30
2022-12-17T13:29:36.167Z,8.10
2022-12-17T13:32:19.915Z,7.30
2022-12-17T13:34:58.379Z,12.60
2022-12-17T13:37:29.302Z,10.50
2022-12-17T13:40:01.782Z,13.40
2022-12-17T13:42:33.070Z,13.90
2022-12-17T13:44:59.990Z,14.70
2022-12-17T13:47:35.244Z,14.30
2022-12-17T13:50:32.809Z,13.40
2022-12-17T13:52:56.923Z,11.90
2022-12-17T13:55:25.666Z,13.40
2022-12-17T13:57:54.218Z,20.20
2022-12-17T14:00:23.399Z,28.40
2022-12-17T14:02:53.124Z,18.90
2022-12-17T14:05:40.324Z,19.00
2022-12-17T14:08:07.316Z,14.00
2022-12-17T14:10:34.144Z,13.10
2022-12-17T14:13:10.661Z,13.60
2022-12-17T14:15:37.611Z,16.90
2022-12-17T14:18:04.532Z,13.10
2022-12-17T14:20:33.075Z,14.00
2022-12-17T14:23:06.189Z,14.90
2022-12-17T14:25:38.165Z,14.00
2022-12-17T14:28:07.205Z,24.20
2022-12-17T14:31:17.126Z,21.80
2022-12-17T14:33:31.471Z,19.90
2022-12-17T14:36:09.033Z,19.20
2022-12-17T14:38:39.482Z,17.90
2022-12-17T14:41:31.101Z,19.20
2022-12-17T14:43:59.006Z,17.80
2022-12-17T14:46:34.103Z,13.10
2022-12-17T14:49:12.312Z,14.60
2022-12-17T14:51:40.617Z,15.00
2022-12-17T14:54:20.517Z,18.10
2022-12-17T14:56:54.694Z,22.70
2022-12-17T14:59:35.375Z,22.30
2022-12-17T15:02:09.333Z,16.60
2022-12-17T15:04:37.147Z,17.60
2022-12-17T15:07:04.420Z,19.00
2022-12-17T15:09:35.308Z,19.50
2022-12-17T15:12:04.782Z,22.80
2022-12-17T15:14:32.133Z,19.20
2022-12-17T15:17:07.026Z,19.60
2022-12-17T15:19:33.860Z,22.00
2022-12-17T15:22:00.785Z,22.30
2022-12-17T15:24:27.604Z,20.00
2022-12-17T15:26:58.351Z,19.00
2022-12-17T15:29:25.212Z,23.30
2022-12-17T15:31:54.436Z,22.50
2022-12-17T15:34:23.528Z,24.80
2022-12-17T15:36:50.351Z,23.80
2022-12-17T15:39:17.453Z,27.30
2022-12-17T15:42:03.319Z,23.10
2022-12-17T15:44:30.116Z,24.10
2022-12-17T15:47:00.114Z,25.30
2022-12-17T15:49:27.182Z,25.90
2022-12-17T15:51:54.008Z,24.50
2022-12-17T15:54:20.911Z,29.60
2022-12-17T15:56:52.675Z,29.10
2022-12-17T15:59:19.744Z,35.30
2022-12-17T16:01:52.027Z,28.80
2022-12-17T16:04:24.646Z,28.90
2022-12-17T16:06:52.031Z,33.00
2022-12-17T16:09:19.547Z,26.50
2022-12-17T16:11:47.326Z,26.60
2022-12-17T16:14:14.184Z,26.00
2022-12-17T16:16:43.350Z,31.80
2022-12-17T16:19:10.717Z,29.90
2022-12-17T16:21:42.041Z,32.50
2022-12-17T16:24:12.228Z,35.00
2022-12-17T16:26:40.143Z,34.30
2022-12-17T16:29:07.048Z,31.10
2022-12-17T16:31:34.363Z,35.30
2022-12-17T16:34:01.236Z,27.80
2022-12-17T16:36:28.039Z,30.40
2022-12-17T16:38:55.136Z,36.10
2022-12-17T16:41:22.040Z,35.60
2022-12-17T16:43:51.434Z,31.30
2022-12-17T16:46:34.389Z,32.40
2022-12-17T16:49:09.422Z,31.20
2022-12-17T16:51:38.911Z,35.50
2022-12-17T16:54:14.465Z,34.50
2022-12-17T16:56:41.428Z,35.60
2022-12-17T16:59:11.163Z,31.90
2022-12-17T17:01:38.919Z,34.80
2022-12-17T17:04:06.945Z,33.50
2022-12-17T17:06:41.321Z,36.80
2022-12-17T17:09:08.263Z,36.90
2022-12-17T17:11:35.181Z,37.70
2022-12-17T17:14:04.911Z,33.30
2022-12-17T17:16:31.844Z,33.90
2022-12-17T17:18:58.745Z,30.00
2022-12-17T17:21:30.339Z,32.80
2022-12-17T17:24:20.851Z,30.20
2022-12-17T17:26:49.075Z,33.00
2022-12-17T17:29:15.901Z,32.80
2022-12-17T17:34:30.119Z,31.90
2022-12-17T17:37:04.301Z,30.20
2022-12-17T17:39:33.455Z,30.70
2022-12-17T17:42:00.915Z,31.60
2022-12-17T17:44:28.002Z,37.00
2022-12-17T17:46:54.896Z,35.90
2022-12-17T17:49:22.388Z,34.60
2022-12-17T17:52:08.947Z,33.50
2022-12-17T17:54:36.492Z,34.40
2022-12-17T17:57:05.617Z,29.00
2022-12-17T17:59:34.019Z,34.60
2022-12-17T18:02:01.710Z,31.90
2022-12-17T18:04:28.694Z,33.30
2022-12-17T18:07:24.075Z,38.30
2022-12-17T18:09:42.544Z,35.60
2022-12-17T18:12:27.971Z,31.70
2022-12-17T18:17:41.946Z,37.20
2022-12-17T18:20:09.902Z,32.80
2022-12-17T18:22:37.000Z,33.70
2022-12-17T18:25:04.370Z,38.80
2022-12-17T18:27:34.257Z,33.90
2022-12-17T18:30:01.292Z,32.40
2022-12-17T18:32:30.214Z,33.30
2022-12-17T18:34:57.170Z,36.40
2022-12-17T18:37:26.808Z,36.00
2022-12-17T18:39:53.640Z,31.60
2022-12-17T18:42:40.417Z,32.60
2022-12-17T18:45:07.809Z,32.90
2022-12-17T18:47:39.678Z,34.60
2022-12-17T18:50:06.938Z,28.30
2022-12-17T18:52:33.833Z,29.30
2022-12-17T18:55:04.372Z,30.50
2022-12-17T18:57:43.240Z,30.80
2022-12-17T19:00:17.205Z,32.60
2022-12-17T19:02:44.624Z,33.10
2022-12-17T19:05:11.595Z,29.80
2022-12-17T19:07:38.585Z,31.70
2022-12-17T19:10:10.179Z,33.90
2022-12-17T19:12:40.542Z,30.80
2022-12-17T19:15:11.288Z,32.70
2022-12-17T19:17:41.702Z,31.20
2022-12-17T19:20:09.348Z,31.90
2022-12-17T19:22:36.225Z,30.00
2022-12-17T19:25:03.255Z,31.10
2022-12-17T19:27:30.150Z,32.20
2022-12-17T19:29:57.612Z,28.10
2022-12-17T19:32:25.052Z,31.30
2022-12-17T19:37:23.172Z,33.10
2022-12-17T19:39:50.176Z,31.90
2022-12-17T19:42:27.606Z,30.70
2022-12-17T19:44:57.443Z,31.50
2022-12-17T19:47:24.630Z,29.50
2022-12-17T19:49:51.573Z,27.10
2022-12-17T19:52:21.226Z,28.60
2022-12-17T19:54:48.789Z,25.30
2022-12-17T19:57:15.880Z,27.20
2022-12-17T19:59:45.166Z,24.40
2022-12-17T20:02:12.303Z,25.70
2022-12-17T20:04:42.292Z,24.60
2022-12-17T20:07:09.080Z,24.90
2022-12-17T20:09:45.617Z,25.90
2022-12-17T20:12:12.850Z,27.70
2022-12-17T20:14:39.744Z,22.20
2022-12-17T20:17:06.717Z,22.80
2022-12-17T20:19:35.262Z,24.40
2022-12-17T20:22:05.977Z,21.60
2022-12-17T20:24:38.082Z,21.80
2022-12-17T20:27:09.472Z,20.50
2022-12-17T20:29:36.369Z,21.30
2022-12-17T20:32:03.630Z,24.50
2022-12-17T20:34:30.725Z,21.80
2022-12-17T20:36:57.544Z,20.80
2022-12-17T20:39:28.253Z,20.90
2022-12-17T20:41:56.448Z,22.40
2022-12-17T20:44:23.464Z,27.70
2022-12-17T20:46:50.396Z,23.40
2022-12-17T20:49:18.378Z,24.30
2022-12-17T20:51:46.036Z,23.80
2022-12-17T20:54:12.858Z,22.30
2022-12-17T20:56:40.100Z,24.20
2022-12-17T20:59:08.709Z,23.10
2022-12-17T21:01:36.137Z,25.10
2022-12-17T21:04:03.482Z,24.20
2022-12-17T21:06:34.802Z,24.60
2022-12-17T21:09:03.512Z,22.10
2022-12-17T21:11:32.987Z,21.80
2022-12-17T21:14:10.308Z,22.50
2022-12-17T21:16:38.416Z,23.80
2022-12-17T21:19:26.606Z,23.20
2022-12-17T21:22:32.285Z,25.00
2022-12-17T21:25:01.562Z,21.60
2022-12-17T21:27:29.851Z,24.20
2022-12-17T21:29:57.250Z,26.20
2022-12-17T21:32:28.819Z,25.10
2022-12-17T21:35:00.411Z,23.30
2022-12-17T21:37:27.530Z,23.30
2022-12-17T21:39:59.544Z,22.40
2022-12-17T21:42:45.529Z,25.10
2022-12-17T21:45:12.670Z,29.40
2022-12-17T21:47:39.905Z,22.90
2022-12-17T21:50:07.241Z,25.10
2022-12-17T21:52:34.103Z,27.00
2022-12-17T21:55:00.966Z,25.90
2022-12-17T21:57:27.815Z,22.90
2022-12-17T21:59:54.615Z,24.30
2022-12-17T22:02:25.050Z,23.50
2022-12-17T22:04:52.148Z,24.60
2022-12-17T22:07:22.436Z,27.50
2022-12-17T22:10:17.764Z,25.40
2022-12-17T22:13:03.096Z,24.20
2022-12-17T22:15:30.994Z,28.00
2022-12-17T22:18:05.264Z,29.00
2022-12-17T22:20:37.767Z,27.00
2022-12-17T22:23:06.826Z,29.60
2022-12-17T22:25:43.652Z,26.70
2022-12-17T22:28:10.724Z,25.30
2022-12-17T22:30:59.903Z,27.10
2022-12-17T22:34:27.179Z,27.40
2022-12-17T22:38:54.452Z,26.90
2022-12-17T22:42:42.325Z,27.20
2022-12-17T22:44:41.941Z,28.80
2022-12-17T22:45:10.310Z,28.20
2022-12-17T22:47:41.689Z,39.30
2022-12-17T22:50:08.924Z,37.80
2022-12-17T22:52:38.985Z,32.90
2022-12-17T22:55:09.490Z,32.80
2022-12-17T22:57:38.550Z,33.20
2022-12-17T23:00:20.303Z,27.00
2022-12-17T23:02:47.283Z,30.00
2022-12-17T23:05:14.771Z,32.10
2022-12-17T23:07:41.615Z,29.20
2022-12-17T23:10:08.893Z,28.20
2022-12-17T23:12:50.871Z,32.00
2022-12-17T23:15:42.978Z,30.50
2022-12-17T23:18:12.567Z,31.10
2022-12-17T23:20:39.400Z,29.80
2022-12-17T23:23:06.345Z,31.60
2022-12-17T23:25:33.602Z,33.80
2022-12-17T23:28:00.447Z,31.10
2022-12-17T23:30:27.192Z,34.30
2022-12-17T23:32:53.976Z,33.40
2022-12-17T23:35:20.966Z,36.80
2022-12-17T23:37:47.893Z,32.40
2022-12-17T23:40:14.861Z,34.50
2022-12-17T23:42:42.595Z,32.30
2022-12-17T23:45:11.506Z,36.40
2022-12-17T23:47:41.325Z,34.30
2022-12-17T23:50:11.264Z,33.60
2022-12-17T23:52:38.402Z,35.00
2022-12-17T23:55:05.543Z,33.30
2022-12-17T23:57:32.705Z,35.60
